Terminal Aerodrome Forecast
Issued by NWS Omaha/Valley, NE

Home | Current Version | Previous Version | Text Only | Print | Product List | Glossary Off
Versions: 1 2 3 4 5 6 7 8 9 10 11 12 13 14 15 16 17 18 19 20 21 22 23 24 25 26 27 28 29 30 31 32 33 34 35 36 37 38 39 40 41 42 43 44 45

000
FTUS43 KOAX 231307 AAA
TAFOFK
TAF AMD
KOFK 231307Z 2313/2412 33016G24KT P6SM SCT025 BKN150
      TEMPO 2314/2316 5SM -SHRA BKN025
     FM231600 33018G28KT P6SM OVC035
      TEMPO 2316/2319 5SM -SHRA
     FM232000 33020G30KT P6SM OVC035
     FM240300 33023G33KT P6SM OVC035=

USA.gov is the U.S. government's official web portal to all federal, state and local government web resources and services.